Groote Eylandt Airport
YGTE : now visible

Airfield :











YOU CAN JOIN US ON...

 
LOGIN :

Register | Disclaimer

   EN    FR    IT 

 









Legend :    VFR   Marginal VFR   IFR   Intensive IFR   Very Intensive IFR
Visi :
Ceiling :
>= 8 km
>= 3000ft
5 to 8 km
1000 to 3000 ft
1500m to 5 km
500 to 1000 ft
800 to 1500m
200 to 500 ft
< 800m
< 200 ft
Symbols :   Thunderstorms  Fog  Heavy snow  Heavy precipitations  Wind > 20 kt






- Airport Elevation : 53 ft
- IATA code : GTE


YGTE - Groote Eylandt

CURRENT METAR :
  • 110400Z AUTO 35006KT 270V050 9999 -RA BKN054 BKN068 BKN083 34/21 Q1007

EXPIRED METARs :
  • 110300Z AUTO 29010KT 9999 // SCT048 BKN059 33/24 Q1008
  • 110200Z AUTO 30010KT 9999 // SCT059 SCT074 33/25 Q1009

TAF N/A



MET'MAP, your aeronautical weather chart ! - Copyright ORBIFLY December 2007 - Disclaimer

ORBIFLY MET'MAP TEAM :

Programming & Development : Alexandra Zaïnal
Concept & original design : Baudouin d'Aumeries
Assistance for programming : Marc-Olivier Méhu
Technical & hardware support : Manuel Goepfert

Contact : metmap@orbifly.com




SOURCES & CREDITS :

   NOAA       Earth
Advisory